Walnut Ridge Regional, AR

8:46 AM CDT on May 25, 2015 (GMT -0500)
Jonesboro Municipal | | Change Station
CLOSE
Current Station
Airport
Location: Jonesboro,
Elevation: 262 ft
Nearby Weather Stations

Elev 262 ft 35.83 °N, 90.65 °W | Updated 15 minutes ago

Clear
Clear
70 °F
Feels Like 70 °F
N
8
Wind Variable Wind from South

Today
High -- | Low -- °F
--% Chance of Precip.
Yesterday
High -- | Low -- °F
Precip. -- in
5:51 AM 8:10 PM
Waxing Crescent, 49% visible
Pressure 30.05 in
Visibility 10.0 miles
Clouds Scattered Clouds 1200 ft
Overcast 2100 ft
Dew Point 69 °F
Humidity 97%
Rainfall 0.13 in
Snow Depth Not available.
UV 1 out of 12
Pollen .70 out of 12
Air Quality Not available.
Flu Activity No Activity
SPECI KJBR 251331Z AUTO 19007KT 10SM SCT012 OVC021 21/21 A3005 RMK AO2 T02110206

More Conditions Fewer Conditions

Pressure 30.05 in
Visibility 10.0 miles
Clouds Scattered Clouds 1200 ft
Overcast 2100 ft
Dew Point 69 °F
Humidity 97%
Rainfall 0.13 in
Snow Depth Not available.
UV 1 out of 12
Pollen .70 out of 12
Air Quality Not available.
Flu Activity No Activity
SPECI KJBR 251331Z AUTO 19007KT 10SM SCT012 OVC021 21/21 A3005 RMK AO2 T02110206

More Conditions Fewer Conditions

10-Day Weather Forecast

Almanac

Astronomy

May. 25, 2015 Rise Set
Actual Time
Civil Twilight
Nautical Twilight
Astronomical Twilight
Moon
Length of Visible Light
Length of Day
Tomorrow will be .
, % of the Moon is Illuminated

Today's Extremes

State Highs State Lows

Community

WunderPhotos

Upload Photos

1,824,009 photos uploaded!

WunderBlogs® & News

Nearby

Air Quality

  Air Quality AQ Index Pollutant
Not available.

Snow Depth

Station Depth Elevation

Earthquake Activity

City Distance Mag. Time & Date
Minimum magnitude displayed is 2.5.

Coastal Water Temperatures

Place Temperature

Stations

Nearby Weather Stations

Station Location Temp. Windchill Dew Point Humidity Wind Precip. Elev Updated Type